sensor_id;sensor_type;location;lat;lon;timestamp;temperature;humidity
3784;DHT22;1907;49.238;9.262;2022-10-19T00:00:45;13.80;99.90
3784;DHT22;1907;49.238;9.262;2022-10-19T00:03:11;13.90;99.90
3784;DHT22;1907;49.238;9.262;2022-10-19T00:05:36;13.90;99.90
3784;DHT22;1907;49.238;9.262;2022-10-19T00:08:02;13.90;99.90
3784;DHT22;1907;49.238;9.262;2022-10-19T00:10:28;13.90;99.90
3784;DHT22;1907;49.238;9.262;2022-10-19T00:12:53;13.90;99.90
3784;DHT22;1907;49.238;9.262;2022-10-19T00:15:19;13.90;99.90
3784;DHT22;1907;49.238;9.262;2022-10-19T00:17:44;13.90;99.90
3784;DHT22;1907;49.238;9.262;2022-10-19T00:20:11;13.80;99.90
3784;DHT22;1907;49.238;9.262;2022-10-19T00:22:37;13.80;99.90
3784;DHT22;1907;49.238;9.262;2022-10-19T00:25:03;13.80;99.90
3784;DHT22;1907;49.238;9.262;2022-10-19T00:27:29;13.80;99.90
3784;DHT22;1907;49.238;9.262;2022-10-19T00:29:55;13.80;99.90
3784;DHT22;1907;49.238;9.262;2022-10-19T00:32:20;13.80;99.90
3784;DHT22;1907;49.238;9.262;2022-10-19T00:34:46;13.90;99.90
3784;DHT22;1907;49.238;9.262;2022-10-19T00:37:11;13.90;99.90
3784;DHT22;1907;49.238;9.262;2022-10-19T00:39:37;13.90;99.90
3784;DHT22;1907;49.238;9.262;2022-10-19T00:42:03;13.90;99.90
3784;DHT22;1907;49.238;9.262;2022-10-19T00:47:02;14.00;99.90
3784;DHT22;1907;49.238;9.262;2022-10-19T00:49:32;14.00;99.90
3784;DHT22;1907;49.238;9.262;2022-10-19T00:52:12;14.00;99.90
3784;DHT22;1907;49.238;9.262;2022-10-19T00:54:40;14.00;99.90
3784;DHT22;1907;49.238;9.262;2022-10-19T00:57:07;14.00;99.90
3784;DHT22;1907;49.238;9.262;2022-10-19T00:59:33;14.00;99.90
3784;DHT22;1907;49.238;9.262;2022-10-19T01:02:02;14.00;99.90
3784;DHT22;1907;49.238;9.262;2022-10-19T01:04:29;14.00;99.90
3784;DHT22;1907;49.238;9.262;2022-10-19T01:06:55;14.10;99.90
3784;DHT22;1907;49.238;9.262;2022-10-19T01:09:22;14.10;99.90
3784;DHT22;1907;49.238;9.262;2022-10-19T01:12:07;14.10;99.90
3784;DHT22;1907;49.238;9.262;2022-10-19T01:28:43;14.10;99.90
3784;DHT22;1907;49.238;9.262;2022-10-19T01:34:22;14.10;99.90
3784;DHT22;1907;49.238;9.262;2022-10-19T01:37:09;14.10;99.90
3784;DHT22;1907;49.238;9.262;2022-10-19T01:39:42;14.10;99.90
3784;DHT22;1907;49.238;9.262;2022-10-19T01:42:49;14.10;99.90
3784;DHT22;1907;49.238;9.262;2022-10-19T01:45:30;14.10;99.90
3784;DHT22;1907;49.238;9.262;2022-10-19T01:48:06;14.10;99.90
3784;DHT22;1907;49.238;9.262;2022-10-19T01:53:10;14.00;99.90
3784;DHT22;1907;49.238;9.262;2022-10-19T01:55:41;14.00;99.90
3784;DHT22;1907;49.238;9.262;2022-10-19T01:58:10;14.00;99.90
3784;DHT22;1907;49.238;9.262;2022-10-19T02:00:40;14.00;99.90
3784;DHT22;1907;49.238;9.262;2022-10-19T02:03:09;14.00;99.90
3784;DHT22;1907;49.238;9.262;2022-10-19T02:05:35;14.00;99.90
3784;DHT22;1907;49.238;9.262;2022-10-19T02:08:07;14.00;99.90
3784;DHT22;1907;49.238;9.262;2022-10-19T02:10:36;14.00;99.90
3784;DHT22;1907;49.238;9.262;2022-10-19T02:13:04;14.10;99.90
3784;DHT22;1907;49.238;9.262;2022-10-19T02:15:33;14.10;99.90
3784;DHT22;1907;49.238;9.262;2022-10-19T02:18:01;14.10;99.90
3784;DHT22;1907;49.238;9.262;2022-10-19T02:20:28;14.00;99.90
3784;DHT22;1907;49.238;9.262;2022-10-19T02:22:54;14.00;99.90
3784;DHT22;1907;49.238;9.262;2022-10-19T02:25:21;14.00;99.90
3784;DHT22;1907;49.238;9.262;2022-10-19T02:27:47;14.10;99.90
3784;DHT22;1907;49.238;9.262;2022-10-19T02:30:15;14.10;99.90
3784;DHT22;1907;49.238;9.262;2022-10-19T02:32:42;14.10;99.90
3784;DHT22;1907;49.238;9.262;2022-10-19T02:35:09;14.10;99.90
3784;DHT22;1907;49.238;9.262;2022-10-19T02:37:36;14.10;99.90
3784;DHT22;1907;49.238;9.262;2022-10-19T02:40:03;14.10;99.90
3784;DHT22;1907;49.238;9.262;2022-10-19T02:42:34;14.10;99.90
3784;DHT22;1907;49.238;9.262;2022-10-19T02:45:08;14.00;99.90
3784;DHT22;1907;49.238;9.262;2022-10-19T02:47:43;14.00;99.90
3784;DHT22;1907;49.238;9.262;2022-10-19T02:50:10;14.00;99.90
3784;DHT22;1907;49.238;9.262;2022-10-19T02:52:39;14.00;99.90
3784;DHT22;1907;49.238;9.262;2022-10-19T02:55:06;14.00;99.90
3784;DHT22;1907;49.238;9.262;2022-10-19T02:57:32;14.00;99.90
3784;DHT22;1907;49.238;9.262;2022-10-19T02:59:58;14.00;99.90
3784;DHT22;1907;49.238;9.262;2022-10-19T03:02:24;13.90;99.90
3784;DHT22;1907;49.238;9.262;2022-10-19T03:04:50;13.90;99.90
3784;DHT22;1907;49.238;9.262;2022-10-19T03:07:18;13.90;99.90
3784;DHT22;1907;49.238;9.262;2022-10-19T03:09:44;13.90;99.90
3784;DHT22;1907;49.238;9.262;2022-10-19T03:12:11;13.90;99.90
3784;DHT22;1907;49.238;9.262;2022-10-19T03:14:37;13.90;99.90
3784;DHT22;1907;49.238;9.262;2022-10-19T03:17:03;13.90;99.90
3784;DHT22;1907;49.238;9.262;2022-10-19T03:19:29;13.90;99.90
3784;DHT22;1907;49.238;9.262;2022-10-19T03:21:54;13.90;99.90
3784;DHT22;1907;49.238;9.262;2022-10-19T03:24:20;13.90;99.90
3784;DHT22;1907;49.238;9.262;2022-10-19T03:26:46;13.80;99.90
3784;DHT22;1907;49.238;9.262;2022-10-19T03:29:11;13.90;99.90
3784;DHT22;1907;49.238;9.262;2022-10-19T03:31:37;13.80;99.90
3784;DHT22;1907;49.238;9.262;2022-10-19T03:34:02;13.80;99.90
3784;DHT22;1907;49.238;9.262;2022-10-19T03:36:30;13.80;99.90
3784;DHT22;1907;49.238;9.262;2022-10-19T03:38:58;13.80;99.90
3784;DHT22;1907;49.238;9.262;2022-10-19T03:41:27;13.80;99.90
3784;DHT22;1907;49.238;9.262;2022-10-19T03:43:53;13.80;99.90
3784;DHT22;1907;49.238;9.262;2022-10-19T03:46:19;13.80;99.90
3784;DHT22;1907;49.238;9.262;2022-10-19T03:48:45;13.80;99.90
3784;DHT22;1907;49.238;9.262;2022-10-19T03:51:16;13.80;99.90
3784;DHT22;1907;49.238;9.262;2022-10-19T03:53:43;13.80;99.90
3784;DHT22;1907;49.238;9.262;2022-10-19T03:56:16;13.80;99.90
3784;DHT22;1907;49.238;9.262;2022-10-19T03:58:44;13.80;99.90
3784;DHT22;1907;49.238;9.262;2022-10-19T04:01:16;13.90;99.90
3784;DHT22;1907;49.238;9.262;2022-10-19T04:03:42;13.80;99.90
3784;DHT22;1907;49.238;9.262;2022-10-19T04:06:18;13.80;99.90
3784;DHT22;1907;49.238;9.262;2022-10-19T04:08:47;13.80;99.90
3784;DHT22;1907;49.238;9.262;2022-10-19T04:11:14;13.80;99.90
3784;DHT22;1907;49.238;9.262;2022-10-19T04:13:41;13.80;99.90
3784;DHT22;1907;49.238;9.262;2022-10-19T04:16:07;13.80;99.90
3784;DHT22;1907;49.238;9.262;2022-10-19T04:18:32;13.80;99.90
3784;DHT22;1907;49.238;9.262;2022-10-19T04:21:00;13.80;99.90
3784;DHT22;1907;49.238;9.262;2022-10-19T04:23:27;13.80;99.90
3784;DHT22;1907;49.238;9.262;2022-10-19T04:26:02;13.80;99.90
3784;DHT22;1907;49.238;9.262;2022-10-19T04:28:28;13.90;99.90
3784;DHT22;1907;49.238;9.262;2022-10-19T04:30:54;13.80;99.90
3784;DHT22;1907;49.238;9.262;2022-10-19T04:33:20;13.80;99.90
3784;DHT22;1907;49.238;9.262;2022-10-19T04:35:46;13.80;99.90
3784;DHT22;1907;49.238;9.262;2022-10-19T04:38:11;13.80;99.90
3784;DHT22;1907;49.238;9.262;2022-10-19T04:40:37;13.80;99.90
3784;DHT22;1907;49.238;9.262;2022-10-19T04:43:03;13.80;99.90
3784;DHT22;1907;49.238;9.262;2022-10-19T04:45:29;13.80;99.90
3784;DHT22;1907;49.238;9.262;2022-10-19T04:47:55;13.80;99.90
3784;DHT22;1907;49.238;9.262;2022-10-19T04:50:24;13.80;99.90
3784;DHT22;1907;49.238;9.262;2022-10-19T04:52:50;13.80;99.90
3784;DHT22;1907;49.238;9.262;2022-10-19T04:55:16;13.80;99.90
3784;DHT22;1907;49.238;9.262;2022-10-19T04:57:42;13.80;99.90
3784;DHT22;1907;49.238;9.262;2022-10-19T05:00:08;13.80;99.90
3784;DHT22;1907;49.238;9.262;2022-10-19T05:02:34;13.80;99.90
3784;DHT22;1907;49.238;9.262;2022-10-19T05:05:00;13.80;99.90
3784;DHT22;1907;49.238;9.262;2022-10-19T05:07:25;13.70;99.90
3784;DHT22;1907;49.238;9.262;2022-10-19T05:09:51;13.70;99.90
3784;DHT22;1907;49.238;9.262;2022-10-19T05:12:17;13.70;99.90
3784;DHT22;1907;49.238;9.262;2022-10-19T05:14:42;13.70;99.90
3784;DHT22;1907;49.238;9.262;2022-10-19T05:17:08;13.70;99.90
3784;DHT22;1907;49.238;9.262;2022-10-19T05:19:33;13.60;99.90
3784;DHT22;1907;49.238;9.262;2022-10-19T05:21:59;13.70;99.90
3784;DHT22;1907;49.238;9.262;2022-10-19T05:24:24;13.70;99.90
3784;DHT22;1907;49.238;9.262;2022-10-19T05:26:50;13.70;99.90
3784;DHT22;1907;49.238;9.262;2022-10-19T05:29:15;13.70;99.90
3784;DHT22;1907;49.238;9.262;2022-10-19T05:31:41;13.60;99.90
3784;DHT22;1907;49.238;9.262;2022-10-19T05:34:07;13.60;99.90
3784;DHT22;1907;49.238;9.262;2022-10-19T05:36:34;13.60;99.90
3784;DHT22;1907;49.238;9.262;2022-10-19T05:39:11;13.60;99.90
3784;DHT22;1907;49.238;9.262;2022-10-19T05:41:37;13.60;99.90
3784;DHT22;1907;49.238;9.262;2022-10-19T05:44:03;13.60;99.90
3784;DHT22;1907;49.238;9.262;2022-10-19T05:46:31;13.60;99.90
3784;DHT22;1907;49.238;9.262;2022-10-19T05:48:58;13.60;99.90
3784;DHT22;1907;49.238;9.262;2022-10-19T05:51:25;13.50;99.90
3784;DHT22;1907;49.238;9.262;2022-10-19T05:53:52;13.50;99.90
3784;DHT22;1907;49.238;9.262;2022-10-19T05:56:23;13.40;99.90
3784;DHT22;1907;49.238;9.262;2022-10-19T05:58:49;13.40;99.90
3784;DHT22;1907;49.238;9.262;2022-10-19T06:01:16;13.30;99.90
3784;DHT22;1907;49.238;9.262;2022-10-19T06:03:43;13.30;99.90
3784;DHT22;1907;49.238;9.262;2022-10-19T06:06:10;13.30;99.90
3784;DHT22;1907;49.238;9.262;2022-10-19T06:08:36;13.30;99.90
3784;DHT22;1907;49.238;9.262;2022-10-19T06:11:09;13.30;99.90
3784;DHT22;1907;49.238;9.262;2022-10-19T06:13:36;13.30;99.90
3784;DHT22;1907;49.238;9.262;2022-10-19T06:16:02;13.30;99.90
3784;DHT22;1907;49.238;9.262;2022-10-19T06:18:28;13.20;99.90
3784;DHT22;1907;49.238;9.262;2022-10-19T06:20:54;13.20;99.90
3784;DHT22;1907;49.238;9.262;2022-10-19T06:23:20;13.20;99.90
3784;DHT22;1907;49.238;9.262;2022-10-19T06:25:45;13.20;99.90
3784;DHT22;1907;49.238;9.262;2022-10-19T06:28:11;13.20;99.90
3784;DHT22;1907;49.238;9.262;2022-10-19T06:30:38;13.20;99.90
3784;DHT22;1907;49.238;9.262;2022-10-19T06:33:04;13.10;99.90
3784;DHT22;1907;49.238;9.262;2022-10-19T06:35:30;13.20;99.90
3784;DHT22;1907;49.238;9.262;2022-10-19T06:37:56;13.20;99.90
3784;DHT22;1907;49.238;9.262;2022-10-19T06:40:22;13.20;99.90
3784;DHT22;1907;49.238;9.262;2022-10-19T06:42:48;13.20;99.90
3784;DHT22;1907;49.238;9.262;2022-10-19T06:45:14;13.20;99.90
3784;DHT22;1907;49.238;9.262;2022-10-19T06:47:39;13.20;99.90
3784;DHT22;1907;49.238;9.262;2022-10-19T06:50:05;13.30;99.90
3784;DHT22;1907;49.238;9.262;2022-10-19T06:52:32;13.30;99.90
3784;DHT22;1907;49.238;9.262;2022-10-19T06:54:58;13.30;99.90
3784;DHT22;1907;49.238;9.262;2022-10-19T06:57:23;13.40;99.90
3784;DHT22;1907;49.238;9.262;2022-10-19T06:59:49;13.40;99.90
3784;DHT22;1907;49.238;9.262;2022-10-19T07:02:14;13.40;99.90
3784;DHT22;1907;49.238;9.262;2022-10-19T07:04:40;13.50;99.90
3784;DHT22;1907;49.238;9.262;2022-10-19T07:07:05;13.50;99.90
3784;DHT22;1907;49.238;9.262;2022-10-19T07:09:32;13.50;99.90
3784;DHT22;1907;49.238;9.262;2022-10-19T07:11:57;13.50;99.90
3784;DHT22;1907;49.238;9.262;2022-10-19T07:14:23;13.60;99.90
3784;DHT22;1907;49.238;9.262;2022-10-19T07:16:49;13.60;99.90
3784;DHT22;1907;49.238;9.262;2022-10-19T07:19:15;13.70;99.90
3784;DHT22;1907;49.238;9.262;2022-10-19T07:21:41;13.70;99.90
3784;DHT22;1907;49.238;9.262;2022-10-19T07:24:08;13.80;99.90
3784;DHT22;1907;49.238;9.262;2022-10-19T07:26:34;13.90;99.90
3784;DHT22;1907;49.238;9.262;2022-10-19T07:29:00;14.00;99.90
3784;DHT22;1907;49.238;9.262;2022-10-19T07:31:27;14.10;99.90
3784;DHT22;1907;49.238;9.262;2022-10-19T07:33:54;14.10;99.90
3784;DHT22;1907;49.238;9.262;2022-10-19T07:36:22;14.20;99.90
3784;DHT22;1907;49.238;9.262;2022-10-19T07:38:48;14.30;99.90
3784;DHT22;1907;49.238;9.262;2022-10-19T07:41:16;14.30;99.90
3784;DHT22;1907;49.238;9.262;2022-10-19T07:43:43;14.40;99.90
3784;DHT22;1907;49.238;9.262;2022-10-19T07:46:15;14.40;99.90
3784;DHT22;1907;49.238;9.262;2022-10-19T07:48:42;14.50;99.90
3784;DHT22;1907;49.238;9.262;2022-10-19T07:51:09;14.60;99.90
3784;DHT22;1907;49.238;9.262;2022-10-19T07:53:36;14.80;99.90
3784;DHT22;1907;49.238;9.262;2022-10-19T07:56:07;15.00;99.90
3784;DHT22;1907;49.238;9.262;2022-10-19T07:58:34;15.10;99.90
3784;DHT22;1907;49.238;9.262;2022-10-19T08:03:30;15.30;99.90
3784;DHT22;1907;49.238;9.262;2022-10-19T08:06:05;15.30;99.90
3784;DHT22;1907;49.238;9.262;2022-10-19T08:08:31;15.20;99.90
3784;DHT22;1907;49.238;9.262;2022-10-19T08:10:57;15.30;99.90
3784;DHT22;1907;49.238;9.262;2022-10-19T08:13:23;15.30;99.90
3784;DHT22;1907;49.238;9.262;2022-10-19T08:15:49;15.40;99.90
3784;DHT22;1907;49.238;9.262;2022-10-19T08:18:15;15.50;99.90
3784;DHT22;1907;49.238;9.262;2022-10-19T08:20:43;15.50;99.90
3784;DHT22;1907;49.238;9.262;2022-10-19T08:23:08;15.60;99.90
3784;DHT22;1907;49.238;9.262;2022-10-19T08:25:34;15.60;99.90
3784;DHT22;1907;49.238;9.262;2022-10-19T08:28:01;15.70;99.90
3784;DHT22;1907;49.238;9.262;2022-10-19T08:30:27;15.70;99.90
3784;DHT22;1907;49.238;9.262;2022-10-19T08:32:53;15.70;99.90
3784;DHT22;1907;49.238;9.262;2022-10-19T08:35:18;15.80;99.90
3784;DHT22;1907;49.238;9.262;2022-10-19T08:37:44;15.70;99.90
3784;DHT22;1907;49.238;9.262;2022-10-19T08:40:17;15.80;99.90
3784;DHT22;1907;49.238;9.262;2022-10-19T08:42:58;15.70;99.90
3784;DHT22;1907;49.238;9.262;2022-10-19T08:50:44;15.70;99.90
3784;DHT22;1907;49.238;9.262;2022-10-19T08:53:53;15.70;99.90
3784;DHT22;1907;49.238;9.262;2022-10-19T09:01:51;15.90;99.90
3784;DHT22;1907;49.238;9.262;2022-10-19T09:04:38;15.80;99.90
3784;DHT22;1907;49.238;9.262;2022-10-19T09:07:25;15.80;99.90
3784;DHT22;1907;49.238;9.262;2022-10-19T09:10:25;15.80;99.90
3784;DHT22;1907;49.238;9.262;2022-10-19T09:15:51;16.00;99.90
3784;DHT22;1907;49.238;9.262;2022-10-19T09:18:27;16.00;99.90
3784;DHT22;1907;49.238;9.262;2022-10-19T09:21:19;15.90;99.90
3784;DHT22;1907;49.238;9.262;2022-10-19T09:26:31;15.80;99.90
3784;DHT22;1907;49.238;9.262;2022-10-19T09:31:31;16.00;99.90
3784;DHT22;1907;49.238;9.262;2022-10-19T09:34:01;16.10;99.90
3784;DHT22;1907;49.238;9.262;2022-10-19T09:36:38;16.20;99.90
3784;DHT22;1907;49.238;9.262;2022-10-19T09:39:05;16.40;99.90
3784;DHT22;1907;49.238;9.262;2022-10-19T09:41:31;16.50;99.90
3784;DHT22;1907;49.238;9.262;2022-10-19T09:43:58;16.40;99.90
3784;DHT22;1907;49.238;9.262;2022-10-19T09:48:58;16.70;99.90
3784;DHT22;1907;49.238;9.262;2022-10-19T09:51:25;16.70;99.90
3784;DHT22;1907;49.238;9.262;2022-10-19T09:54:03;16.70;99.90
3784;DHT22;1907;49.238;9.262;2022-10-19T09:56:28;16.80;99.90
3784;DHT22;1907;49.238;9.262;2022-10-19T09:58:56;16.90;99.90
3784;DHT22;1907;49.238;9.262;2022-10-19T10:01:32;16.90;99.90
3784;DHT22;1907;49.238;9.262;2022-10-19T10:06:30;16.80;99.90
3784;DHT22;1907;49.238;9.262;2022-10-19T10:08:57;16.70;99.90
3784;DHT22;1907;49.238;9.262;2022-10-19T10:11:27;16.70;99.90
3784;DHT22;1907;49.238;9.262;2022-10-19T10:13:54;16.60;99.90
3784;DHT22;1907;49.238;9.262;2022-10-19T10:16:22;16.70;99.90
3784;DHT22;1907;49.238;9.262;2022-10-19T10:21:25;16.90;99.90
3784;DHT22;1907;49.238;9.262;2022-10-19T10:26:42;17.20;99.90
3784;DHT22;1907;49.238;9.262;2022-10-19T10:31:49;17.30;99.90
3784;DHT22;1907;49.238;9.262;2022-10-19T10:34:31;17.50;99.90
3784;DHT22;1907;49.238;9.262;2022-10-19T10:36:57;17.60;99.90
3784;DHT22;1907;49.238;9.262;2022-10-19T10:39:24;17.70;99.90
3784;DHT22;1907;49.238;9.262;2022-10-19T10:41:52;17.60;99.90
3784;DHT22;1907;49.238;9.262;2022-10-19T10:44:21;17.60;99.90
3784;DHT22;1907;49.238;9.262;2022-10-19T10:46:54;17.70;99.90
3784;DHT22;1907;49.238;9.262;2022-10-19T10:49:23;17.60;99.90
3784;DHT22;1907;49.238;9.262;2022-10-19T10:51:56;17.50;99.90
3784;DHT22;1907;49.238;9.262;2022-10-19T10:54:30;17.50;99.90
3784;DHT22;1907;49.238;9.262;2022-10-19T11:05:10;18.20;99.90
3784;DHT22;1907;49.238;9.262;2022-10-19T11:07:41;18.20;99.90
3784;DHT22;1907;49.238;9.262;2022-10-19T11:31:33;19.00;99.90
3784;DHT22;1907;49.238;9.262;2022-10-19T11:36:38;19.10;99.90
3784;DHT22;1907;49.238;9.262;2022-10-19T11:39:17;18.80;99.90
3784;DHT22;1907;49.238;9.262;2022-10-19T11:45:02;18.50;99.90
3784;DHT22;1907;49.238;9.262;2022-10-19T11:47:36;19.00;99.90
3784;DHT22;1907;49.238;9.262;2022-10-19T12:03:59;18.80;99.90
3784;DHT22;1907;49.238;9.262;2022-10-19T12:12:24;18.70;99.90
3784;DHT22;1907;49.238;9.262;2022-10-19T12:14:55;18.20;99.90
3784;DHT22;1907;49.238;9.262;2022-10-19T12:17:29;18.20;99.90
3784;DHT22;1907;49.238;9.262;2022-10-19T12:20:03;18.10;99.90
3784;DHT22;1907;49.238;9.262;2022-10-19T12:22:33;18.10;99.90
3784;DHT22;1907;49.238;9.262;2022-10-19T12:25:01;18.20;99.90
3784;DHT22;1907;49.238;9.262;2022-10-19T12:27:38;18.10;99.90
3784;DHT22;1907;49.238;9.262;2022-10-19T12:30:22;18.00;99.90
3784;DHT22;1907;49.238;9.262;2022-10-19T12:33:12;18.00;99.90
3784;DHT22;1907;49.238;9.262;2022-10-19T12:38:53;17.90;99.90
3784;DHT22;1907;49.238;9.262;2022-10-19T12:42:19;18.00;99.90
3784;DHT22;1907;49.238;9.262;2022-10-19T12:47:22;17.90;99.90
3784;DHT22;1907;49.238;9.262;2022-10-19T12:52:32;18.10;99.90
3784;DHT22;1907;49.238;9.262;2022-10-19T12:55:29;18.20;99.90
3784;DHT22;1907;49.238;9.262;2022-10-19T12:58:14;18.10;99.90
3784;DHT22;1907;49.238;9.262;2022-10-19T13:00:56;18.00;99.90
3784;DHT22;1907;49.238;9.262;2022-10-19T13:03:26;18.00;99.90
3784;DHT22;1907;49.238;9.262;2022-10-19T13:05:58;18.00;99.90
3784;DHT22;1907;49.238;9.262;2022-10-19T13:08:30;18.00;99.90
3784;DHT22;1907;49.238;9.262;2022-10-19T13:11:05;17.90;99.90
3784;DHT22;1907;49.238;9.262;2022-10-19T13:13:52;17.70;99.90
3784;DHT22;1907;49.238;9.262;2022-10-19T13:16:57;17.80;99.90
3784;DHT22;1907;49.238;9.262;2022-10-19T13:19:23;17.80;99.90
3784;DHT22;1907;49.238;9.262;2022-10-19T13:40:58;17.40;99.90
3784;DHT22;1907;49.238;9.262;2022-10-19T13:43:22;17.40;99.90
3784;DHT22;1907;49.238;9.262;2022-10-19T13:51:36;17.50;99.90
3784;DHT22;1907;49.238;9.262;2022-10-19T14:02:37;17.60;99.90
3784;DHT22;1907;49.238;9.262;2022-10-19T14:11:05;17.70;99.90
3784;DHT22;1907;49.238;9.262;2022-10-19T14:13:36;17.80;99.90
3784;DHT22;1907;49.238;9.262;2022-10-19T14:16:02;17.70;99.90
3784;DHT22;1907;49.238;9.262;2022-10-19T14:18:28;17.50;99.90
3784;DHT22;1907;49.238;9.262;2022-10-19T14:20:59;17.50;99.90
3784;DHT22;1907;49.238;9.262;2022-10-19T14:23:30;17.50;99.90
3784;DHT22;1907;49.238;9.262;2022-10-19T14:26:14;17.60;99.90
3784;DHT22;1907;49.238;9.262;2022-10-19T14:28:41;17.60;99.90
3784;DHT22;1907;49.238;9.262;2022-10-19T14:31:09;17.70;99.90
3784;DHT22;1907;49.238;9.262;2022-10-19T14:33:40;17.60;99.90
3784;DHT22;1907;49.238;9.262;2022-10-19T14:36:16;17.60;99.90
3784;DHT22;1907;49.238;9.262;2022-10-19T14:38:42;17.40;99.90
3784;DHT22;1907;49.238;9.262;2022-10-19T14:41:29;17.30;99.90
3784;DHT22;1907;49.238;9.262;2022-10-19T14:43:57;17.20;99.90
3784;DHT22;1907;49.238;9.262;2022-10-19T14:46:31;17.10;99.90
3784;DHT22;1907;49.238;9.262;2022-10-19T14:49:03;17.00;99.90
3784;DHT22;1907;49.238;9.262;2022-10-19T14:51:44;16.90;99.90
3784;DHT22;1907;49.238;9.262;2022-10-19T14:54:22;16.80;99.90
3784;DHT22;1907;49.238;9.262;2022-10-19T14:56:53;16.70;99.90
3784;DHT22;1907;49.238;9.262;2022-10-19T15:01:57;16.60;99.90
3784;DHT22;1907;49.238;9.262;2022-10-19T15:04:33;16.60;99.90
3784;DHT22;1907;49.238;9.262;2022-10-19T15:07:02;16.60;99.90
3784;DHT22;1907;49.238;9.262;2022-10-19T15:09:31;16.50;99.90
3784;DHT22;1907;49.238;9.262;2022-10-19T15:12:07;16.50;99.90
3784;DHT22;1907;49.238;9.262;2022-10-19T15:14:34;16.40;99.90
3784;DHT22;1907;49.238;9.262;2022-10-19T15:17:02;16.40;99.90
3784;DHT22;1907;49.238;9.262;2022-10-19T15:22:13;16.40;99.90
3784;DHT22;1907;49.238;9.262;2022-10-19T15:32:29;16.10;99.90
3784;DHT22;1907;49.238;9.262;2022-10-19T15:34:56;16.00;99.90
3784;DHT22;1907;49.238;9.262;2022-10-19T15:37:23;15.90;99.90
3784;DHT22;1907;49.238;9.262;2022-10-19T15:39:50;15.90;99.90
3784;DHT22;1907;49.238;9.262;2022-10-19T15:42:35;15.90;99.90
3784;DHT22;1907;49.238;9.262;2022-10-19T15:45:26;15.80;99.90
3784;DHT22;1907;49.238;9.262;2022-10-19T15:50:42;15.60;99.90
3784;DHT22;1907;49.238;9.262;2022-10-19T15:53:08;15.60;99.90
3784;DHT22;1907;49.238;9.262;2022-10-19T15:55:33;15.50;99.90
3784;DHT22;1907;49.238;9.262;2022-10-19T15:57:59;15.40;99.90
3784;DHT22;1907;49.238;9.262;2022-10-19T16:00:26;15.30;99.90
3784;DHT22;1907;49.238;9.262;2022-10-19T16:02:52;15.20;99.90
3784;DHT22;1907;49.238;9.262;2022-10-19T16:05:18;15.20;99.90
3784;DHT22;1907;49.238;9.262;2022-10-19T16:07:44;15.10;99.90
3784;DHT22;1907;49.238;9.262;2022-10-19T16:10:18;15.00;99.90
3784;DHT22;1907;49.238;9.262;2022-10-19T16:12:45;14.90;99.90
3784;DHT22;1907;49.238;9.262;2022-10-19T16:15:12;14.90;99.90
3784;DHT22;1907;49.238;9.262;2022-10-19T16:17:38;14.70;99.90
3784;DHT22;1907;49.238;9.262;2022-10-19T16:20:05;14.70;99.90
3784;DHT22;1907;49.238;9.262;2022-10-19T16:22:31;14.60;99.90
3784;DHT22;1907;49.238;9.262;2022-10-19T16:24:57;14.60;99.90
3784;DHT22;1907;49.238;9.262;2022-10-19T16:27:22;14.50;99.90
3784;DHT22;1907;49.238;9.262;2022-10-19T16:29:48;14.50;99.90
3784;DHT22;1907;49.238;9.262;2022-10-19T16:32:14;14.40;99.90
3784;DHT22;1907;49.238;9.262;2022-10-19T16:34:39;14.30;99.90
3784;DHT22;1907;49.238;9.262;2022-10-19T16:37:05;14.30;99.90
3784;DHT22;1907;49.238;9.262;2022-10-19T16:39:31;14.20;99.90
3784;DHT22;1907;49.238;9.262;2022-10-19T16:41:57;14.20;99.90
3784;DHT22;1907;49.238;9.262;2022-10-19T16:44:22;14.10;99.90
3784;DHT22;1907;49.238;9.262;2022-10-19T16:46:48;14.00;99.90
3784;DHT22;1907;49.238;9.262;2022-10-19T16:49:13;14.00;99.90
3784;DHT22;1907;49.238;9.262;2022-10-19T16:51:40;13.90;99.90
3784;DHT22;1907;49.238;9.262;2022-10-19T16:54:08;13.90;99.90
3784;DHT22;1907;49.238;9.262;2022-10-19T16:56:34;13.80;99.90
3784;DHT22;1907;49.238;9.262;2022-10-19T16:59:05;13.70;99.90
3784;DHT22;1907;49.238;9.262;2022-10-19T17:01:32;13.70;99.90
3784;DHT22;1907;49.238;9.262;2022-10-19T17:03:58;13.60;99.90
3784;DHT22;1907;49.238;9.262;2022-10-19T17:06:24;13.60;99.90
3784;DHT22;1907;49.238;9.262;2022-10-19T17:08:51;13.60;99.90
3784;DHT22;1907;49.238;9.262;2022-10-19T17:11:25;13.60;99.90
3784;DHT22;1907;49.238;9.262;2022-10-19T17:13:52;13.60;99.90
3784;DHT22;1907;49.238;9.262;2022-10-19T17:16:19;13.60;99.90
3784;DHT22;1907;49.238;9.262;2022-10-19T17:18:48;13.60;99.90
3784;DHT22;1907;49.238;9.262;2022-10-19T17:21:17;13.70;99.90
3784;DHT22;1907;49.238;9.262;2022-10-19T17:23:43;13.70;99.90
3784;DHT22;1907;49.238;9.262;2022-10-19T17:26:10;13.60;99.90
3784;DHT22;1907;49.238;9.262;2022-10-19T17:28:37;13.60;99.90
3784;DHT22;1907;49.238;9.262;2022-10-19T17:31:04;13.60;99.90
3784;DHT22;1907;49.238;9.262;2022-10-19T17:33:30;13.50;99.90
3784;DHT22;1907;49.238;9.262;2022-10-19T17:36:02;13.50;99.90
3784;DHT22;1907;49.238;9.262;2022-10-19T17:38:28;13.50;99.90
3784;DHT22;1907;49.238;9.262;2022-10-19T17:40:53;13.40;99.90
3784;DHT22;1907;49.238;9.262;2022-10-19T17:43:19;13.40;99.90
3784;DHT22;1907;49.238;9.262;2022-10-19T17:45:44;13.30;99.90
3784;DHT22;1907;49.238;9.262;2022-10-19T17:48:10;13.30;99.90
3784;DHT22;1907;49.238;9.262;2022-10-19T17:50:36;13.20;99.90
3784;DHT22;1907;49.238;9.262;2022-10-19T17:53:01;13.20;99.90
3784;DHT22;1907;49.238;9.262;2022-10-19T17:55:27;13.10;99.90
3784;DHT22;1907;49.238;9.262;2022-10-19T17:57:52;13.10;99.90
3784;DHT22;1907;49.238;9.262;2022-10-19T18:00:18;13.00;99.90
3784;DHT22;1907;49.238;9.262;2022-10-19T18:02:44;13.00;99.90
3784;DHT22;1907;49.238;9.262;2022-10-19T18:05:09;12.90;99.90
3784;DHT22;1907;49.238;9.262;2022-10-19T18:07:35;12.90;99.90
3784;DHT22;1907;49.238;9.262;2022-10-19T18:10:01;12.90;99.90
3784;DHT22;1907;49.238;9.262;2022-10-19T18:12:26;12.90;99.90
3784;DHT22;1907;49.238;9.262;2022-10-19T18:14:52;12.80;99.90
3784;DHT22;1907;49.238;9.262;2022-10-19T18:17:17;12.80;99.90
3784;DHT22;1907;49.238;9.262;2022-10-19T18:19:43;12.80;99.90
3784;DHT22;1907;49.238;9.262;2022-10-19T18:22:08;12.80;99.90
3784;DHT22;1907;49.238;9.262;2022-10-19T18:24:34;12.70;99.90
3784;DHT22;1907;49.238;9.262;2022-10-19T18:26:59;12.70;99.90
3784;DHT22;1907;49.238;9.262;2022-10-19T18:29:25;12.60;99.90
3784;DHT22;1907;49.238;9.262;2022-10-19T18:31:51;12.60;99.90
3784;DHT22;1907;49.238;9.262;2022-10-19T18:34:22;12.60;99.90
3784;DHT22;1907;49.238;9.262;2022-10-19T18:36:49;12.50;99.90
3784;DHT22;1907;49.238;9.262;2022-10-19T18:39:15;12.50;99.90
3784;DHT22;1907;49.238;9.262;2022-10-19T18:41:41;12.40;99.90
3784;DHT22;1907;49.238;9.262;2022-10-19T18:44:13;12.40;99.90
3784;DHT22;1907;49.238;9.262;2022-10-19T18:46:38;12.30;99.90
3784;DHT22;1907;49.238;9.262;2022-10-19T18:49:05;12.30;99.90
3784;DHT22;1907;49.238;9.262;2022-10-19T18:51:34;12.30;99.90
3784;DHT22;1907;49.238;9.262;2022-10-19T18:53:59;12.20;99.90
3784;DHT22;1907;49.238;9.262;2022-10-19T18:56:25;12.20;99.90
3784;DHT22;1907;49.238;9.262;2022-10-19T18:58:51;12.10;99.90
3784;DHT22;1907;49.238;9.262;2022-10-19T19:01:22;12.10;99.90
3784;DHT22;1907;49.238;9.262;2022-10-19T19:03:49;12.10;99.90
3784;DHT22;1907;49.238;9.262;2022-10-19T19:06:33;12.00;99.90
3784;DHT22;1907;49.238;9.262;2022-10-19T19:09:03;12.00;99.90